Time,TemperatureF,DewpointF,PressureIn,WindDirection,WindDirectionDegrees,WindSpeedMPH,WindSpeedGustMPH,Humidity,HourlyPrecipIn,Conditions,Clouds,dailyrainin,SoftwareType,DateUTC
2014-01-28 00:04:00,15.3,-8.0,30.41,NE,41,5.0,5.0,34,0.00,,OVC090,0.00,VWS V14.01,2014-01-28 06:04:00,
2014-01-28 00:09:00,15.2,-7.5,30.42,NE,47,2.0,2.0,35,0.00,,OVC090,0.00,VWS V14.01,2014-01-28 06:09:00,
2014-01-28 00:14:00,15.0,-7.1,30.41,NE,47,1.0,1.0,36,0.00,,OVC090,0.00,VWS V14.01,2014-01-28 06:14:00,
2014-01-28 00:19:00,15.2,-7.5,30.40,NNE,32,1.0,1.0,35,0.00,,OVC090,0.00,VWS V14.01,2014-01-28 06:19:00,
2014-01-28 00:24:00,15.0,-7.7,30.40,NNE,14,2.0,2.0,35,0.00,,OVC090,0.00,VWS V14.01,2014-01-28 06:24:00,
2014-01-28 00:29:00,14.9,-7.2,30.41,NNE,22,2.0,2.0,36,0.00,,OVC090,0.00,VWS V14.01,2014-01-28 06:29:00,
2014-01-28 00:34:00,15.1,-7.6,30.40,NNE,28,3.0,3.0,35,0.00,,OVC090,0.00,VWS V14.01,2014-01-28 06:34:00,
2014-01-28 00:39:00,15.0,-7.1,30.40,NE,40,2.0,2.0,36,0.00,,OVC090,0.00,VWS V14.01,2014-01-28 06:39:00,
2014-01-28 00:45:00,14.9,-6.7,30.40,NE,46,4.0,4.0,37,0.00,,OVC090,0.00,VWS V14.01,2014-01-28 06:45:00,
2014-01-28 00:50:00,14.8,-7.3,30.40,NE,50,2.0,2.0,36,0.00,,OVC090,0.00,VWS V14.01,2014-01-28 06:50:00,
2014-01-28 00:55:00,14.7,-7.4,30.40,NNE,30,2.0,2.0,36,0.00,,OVC090,0.00,VWS V14.01,2014-01-28 06:55:00,
2014-01-28 01:00:00,14.7,-7.4,30.40,NNE,22,2.0,2.0,36,0.00,,OVC090,0.00,VWS V14.01,2014-01-28 07:00:00,
2014-01-28 01:05:00,14.7,-7.4,30.40,NNE,23,2.0,2.0,36,0.00,,OVC090,0.00,VWS V14.01,2014-01-28 07:05:00,
2014-01-28 01:10:00,14.5,-7.6,30.40,NNE,29,3.0,3.0,36,0.00,,OVC090,0.00,VWS V14.01,2014-01-28 07:10:00,
2014-01-28 01:15:00,14.5,-7.0,30.40,NNE,28,3.0,3.0,37,0.00,,OVC090,0.00,VWS V14.01,2014-01-28 07:15:00,
2014-01-28 01:20:00,14.5,-7.0,30.41,NNE,30,3.0,3.0,37,0.00,,OVC090,0.00,VWS V14.01,2014-01-28 07:20:00,
2014-01-28 01:25:00,14.5,-7.0,30.41,NE,36,2.0,2.0,37,0.00,,OVC090,0.00,VWS V14.01,2014-01-28 07:25:00,
2014-01-28 01:30:00,14.5,-7.0,30.40,NE,39,3.0,3.0,37,0.00,,OVC090,0.00,VWS V14.01,2014-01-28 07:30:00,
2014-01-28 01:35:00,14.5,-6.5,30.40,NE,43,2.0,2.0,38,0.00,,OVC090,0.00,VWS V14.01,2014-01-28 07:35:00,
2014-01-28 01:40:00,14.3,-7.2,30.40,NNE,33,2.0,2.0,37,0.00,,OVC090,0.00,VWS V14.01,2014-01-28 07:40:00,
2014-01-28 01:45:00,14.3,-6.7,30.41,NNE,31,2.0,2.0,38,0.00,,OVC090,0.00,VWS V14.01,2014-01-28 07:45:00,
2014-01-28 01:50:00,14.3,-6.7,30.41,NNE,32,2.0,2.0,38,0.00,,OVC090,0.00,VWS V14.01,2014-01-28 07:50:00,
2014-01-28 01:56:00,14.3,-6.7,30.41,NE,35,3.0,3.0,38,0.00,,OVC090,0.00,VWS V14.01,2014-01-28 07:56:00,
2014-01-28 02:01:00,14.3,-7.2,30.41,NNE,28,1.0,1.0,37,0.00,,OVC090,0.00,VWS V14.01,2014-01-28 08:01:00,
2014-01-28 02:06:00,14.3,-6.7,30.41,NNE,27,2.0,2.0,38,0.00,,OVC090,0.00,VWS V14.01,2014-01-28 08:06:00,
2014-01-28 02:11:00,14.3,-6.1,30.41,NE,47,2.0,2.0,39,0.00,,OVC090,0.00,VWS V14.01,2014-01-28 08:11:00,
2014-01-28 02:16:00,14.3,-6.7,30.41,NNE,30,1.0,1.0,38,0.00,,OVC090,0.00,VWS V14.01,2014-01-28 08:16:00,
2014-01-28 02:21:00,14.1,-5.3,30.41,NNE,28,2.0,2.0,41,0.00,,OVC090,0.00,VWS V14.01,2014-01-28 08:21:00,
2014-01-28 02:26:00,14.0,-3.4,30.41,NNE,24,4.0,4.0,45,0.00,,OVC090,0.00,VWS V14.01,2014-01-28 08:26:00,
2014-01-28 02:31:00,13.6,-2.0,30.41,NNE,22,2.0,2.0,49,0.00,,OVC090,0.00,VWS V14.01,2014-01-28 08:31:00,
2014-01-28 02:36:00,13.3,-1.0,30.41,NNE,23,0.0,0.0,52,0.00,,OVC090,0.00,VWS V14.01,2014-01-28 08:36:00,
2014-01-28 02:41:00,13.2,-0.3,30.40,NNE,23,2.0,2.0,54,0.00,,OVC090,0.00,VWS V14.01,2014-01-28 08:41:00,
2014-01-28 02:46:00,13.2,0.4,30.41,NNE,26,3.0,3.0,56,0.00,,OVC090,0.00,VWS V14.01,2014-01-28 08:46:00,
2014-01-28 02:51:00,13.2,0.8,30.41,NNE,27,0.0,0.0,57,0.00,,OVC090,0.00,VWS V14.01,2014-01-28 08:51:00,
2014-01-28 02:57:00,13.0,0.3,30.41,NNE,27,3.0,3.0,56,0.00,,OVC090,0.00,VWS V14.01,2014-01-28 08:57:00,
2014-01-28 03:02:00,13.2,0.8,30.41,NNE,32,1.0,1.0,57,0.00,,OVC090,0.00,VWS V14.01,2014-01-28 09:02:00,
2014-01-28 03:07:00,13.2,0.1,30.41,NNE,32,2.0,2.0,55,0.00,,OVC090,0.00,VWS V14.01,2014-01-28 09:07:00,
2014-01-28 03:12:00,13.2,0.1,30.41,NE,37,2.0,2.0,55,0.00,,OVC090,0.00,VWS V14.01,2014-01-28 09:12:00,
2014-01-28 03:17:00,13.4,-0.5,30.41,NE,37,0.0,0.0,53,0.00,,OVC090,0.00,VWS V14.01,2014-01-28 09:17:00,
2014-01-28 03:22:00,13.4,-1.3,30.41,NE,39,2.0,2.0,51,0.00,,OVC090,0.00,VWS V14.01,2014-01-28 09:22:00,
2014-01-28 03:27:00,13.5,-2.1,30.41,NE,40,2.0,2.0,49,0.00,,OVC090,0.00,VWS V14.01,2014-01-28 09:27:00,
2014-01-28 03:32:00,13.7,-2.3,30.40,NE,40,0.0,0.0,48,0.00,,OVC090,0.00,VWS V14.01,2014-01-28 09:32:00,
2014-01-28 03:37:00,13.8,-3.1,30.41,NE,40,0.0,0.0,46,0.00,,OVC090,0.00,VWS V14.01,2014-01-28 09:37:00,
2014-01-28 03:42:00,13.8,-4.1,30.41,North,357,0.0,0.0,44,0.00,,OVC090,0.00,VWS V14.01,2014-01-28 09:42:00,
2014-01-28 03:47:00,13.8,-4.6,30.41,North,352,1.0,1.0,43,0.00,,OVC090,0.00,VWS V14.01,2014-01-28 09:47:00,
2014-01-28 03:52:00,13.8,-4.6,30.42,North,351,0.0,0.0,43,0.00,,OVC090,0.00,VWS V14.01,2014-01-28 09:52:00,
2014-01-28 03:58:00,13.8,-4.6,30.42,North,357,2.0,2.0,43,0.00,,OVC090,0.00,VWS V14.01,2014-01-28 09:58:00,
2014-01-28 04:03:00,13.7,-5.1,30.42,North,356,4.0,4.0,42,0.00,,OVC090,0.00,VWS V14.01,2014-01-28 10:03:00,
2014-01-28 04:08:00,13.6,-4.7,30.41,North,353,0.0,0.0,43,0.00,,OVC090,0.00,VWS V14.01,2014-01-28 10:08:00,
2014-01-28 04:13:00,13.5,-4.8,30.42,North,357,0.0,0.0,43,0.00,,OVC090,0.00,VWS V14.01,2014-01-28 10:13:00,
2014-01-28 04:18:00,13.5,-4.8,30.41,North,354,0.0,0.0,43,0.00,,OVC090,0.00,VWS V14.01,2014-01-28 10:18:00,
2014-01-28 04:23:00,13.5,-4.8,30.41,North,5,2.0,2.0,43,0.00,,OVC090,0.00,VWS V14.01,2014-01-28 10:23:00,
2014-01-28 04:28:00,13.3,-5.5,30.41,North,351,0.0,0.0,42,0.00,,OVC090,0.00,VWS V14.01,2014-01-28 10:28:00,
2014-01-28 04:33:00,13.3,-5.0,30.41,North,357,0.0,0.0,43,0.00,,OVC090,0.00,VWS V14.01,2014-01-28 10:33:00,
2014-01-28 04:38:00,13.2,-5.1,30.40,North,5,2.0,2.0,43,0.00,,OVC090,0.00,VWS V14.01,2014-01-28 10:38:00,
2014-01-28 04:43:00,13.1,-5.2,30.40,North,357,4.0,4.0,43,0.00,,OVC090,0.00,VWS V14.01,2014-01-28 10:43:00,
2014-01-28 04:48:00,13.2,-5.1,30.40,North,357,2.0,2.0,43,0.00,,OVC090,0.00,VWS V14.01,2014-01-28 10:48:00,
2014-01-28 04:54:00,13.2,-5.1,30.41,North,357,1.0,1.0,43,0.00,,OVC090,0.00,VWS V14.01,2014-01-28 10:54:00,
2014-01-28 04:59:00,13.2,-5.1,30.41,North,357,0.0,0.0,43,0.00,,OVC090,0.00,VWS V14.01,2014-01-28 10:59:00,
2014-01-28 05:04:00,13.1,-5.2,30.40,North,357,1.0,1.0,43,0.00,,OVC090,0.00,VWS V14.01,2014-01-28 11:04:00,
2014-01-28 05:09:00,13.0,-5.3,30.40,North,8,1.0,1.0,43,0.00,,OVC090,0.00,VWS V14.01,2014-01-28 11:09:00,
2014-01-28 05:14:00,13.0,-4.8,30.40,North,8,2.0,2.0,44,0.00,,OVC090,0.00,VWS V14.01,2014-01-28 11:14:00,
2014-01-28 05:19:00,13.0,-4.8,30.41,North,355,0.0,0.0,44,0.00,,OVC090,0.00,VWS V14.01,2014-01-28 11:19:00,
2014-01-28 05:24:00,13.0,-5.3,30.41,North,9,2.0,2.0,43,0.00,,OVC090,0.00,VWS V14.01,2014-01-28 11:24:00,
2014-01-28 05:29:00,12.8,-5.5,30.41,North,10,2.0,2.0,43,0.00,,OVC090,0.00,VWS V14.01,2014-01-28 11:29:00,
2014-01-28 05:34:00,12.8,-5.5,30.41,NNE,13,4.0,4.0,43,0.00,,OVC090,0.00,VWS V14.01,2014-01-28 11:34:00,
2014-01-28 05:39:00,12.8,-5.5,30.41,North,353,2.0,2.0,43,0.00,,OVC090,0.00,VWS V14.01,2014-01-28 11:39:00,
2014-01-28 05:44:00,12.8,-5.5,30.41,North,8,3.0,3.0,43,0.00,,OVC090,0.00,VWS V14.01,2014-01-28 11:44:00,
2014-01-28 05:49:00,12.6,-6.1,30.41,North,5,1.0,1.0,42,0.00,,OVC090,0.00,VWS V14.01,2014-01-28 11:49:00,
2014-01-28 05:55:00,12.5,-6.2,30.42,North,6,1.0,1.0,42,0.00,,OVC090,0.00,VWS V14.01,2014-01-28 11:55:00,
2014-01-28 06:03:00,12.5,-5.7,30.42,North,353,0.0,0.0,43,0.00,,,0.00,VWS V14.01,2014-01-28 12:03:00,
2014-01-28 06:08:00,12.5,-5.7,30.43,North,353,2.0,2.0,43,0.00,,OVC090,0.00,VWS V14.01,2014-01-28 12:08:00,
2014-01-28 06:13:00,12.5,-5.7,30.43,North,354,2.0,2.0,43,0.00,,OVC090,0.00,VWS V14.01,2014-01-28 12:13:00,
2014-01-28 06:18:00,12.4,-5.8,30.43,North,357,1.0,1.0,43,0.00,,OVC090,0.00,VWS V14.01,2014-01-28 12:18:00,
2014-01-28 06:23:00,12.4,-5.8,30.43,North,357,2.0,2.0,43,0.00,,OVC090,0.00,VWS V14.01,2014-01-28 12:23:00,
2014-01-28 06:28:00,12.4,-5.8,30.44,North,357,2.0,2.0,43,0.00,,OVC090,0.00,VWS V14.01,2014-01-28 12:28:00,
2014-01-28 06:34:00,12.4,-5.8,30.44,North,5,2.0,2.0,43,0.00,,OVC090,0.00,VWS V14.01,2014-01-28 12:34:00,
2014-01-28 06:39:00,12.4,-6.3,30.44,North,357,0.0,0.0,42,0.00,,OVC090,0.00,VWS V14.01,2014-01-28 12:39:00,
2014-01-28 06:44:00,12.2,-6.0,30.44,North,357,2.0,2.0,43,0.00,,OVC090,0.00,VWS V14.01,2014-01-28 12:44:00,
2014-01-28 06:49:00,12.2,-6.0,30.44,North,357,3.0,3.0,43,0.00,,OVC090,0.00,VWS V14.01,2014-01-28 12:49:00,
2014-01-28 06:54:00,12.2,-6.0,30.45,NNW,348,4.0,4.0,43,0.00,,OVC090,0.00,VWS V14.01,2014-01-28 12:54:00,
2014-01-28 06:59:00,12.2,-5.5,30.44,North,354,0.0,0.0,44,0.00,,OVC090,0.00,VWS V14.01,2014-01-28 12:59:00,
2014-01-28 07:04:00,12.0,-6.2,30.45,North,357,2.0,2.0,43,0.00,,OVC110,0.00,VWS V14.01,2014-01-28 13:04:00,
2014-01-28 07:09:00,12.1,-6.6,30.45,North,5,2.0,2.0,42,0.00,,OVC110,0.00,VWS V14.01,2014-01-28 13:09:00,
2014-01-28 07:14:00,12.0,-6.2,30.45,North,356,1.0,1.0,43,0.00,,OVC110,0.00,VWS V14.01,2014-01-28 13:14:00,
2014-01-28 07:19:00,12.0,-6.2,30.45,NNE,12,2.0,2.0,43,0.00,,OVC110,0.00,VWS V14.01,2014-01-28 13:19:00,
2014-01-28 07:24:00,12.1,-6.1,30.45,NNE,13,3.0,3.0,43,0.00,,OVC110,0.00,VWS V14.01,2014-01-28 13:24:00,
2014-01-28 07:29:00,12.0,-6.2,30.45,NNE,13,3.0,3.0,43,0.00,,OVC110,0.00,VWS V14.01,2014-01-28 13:29:00,
2014-01-28 07:34:00,12.1,-6.1,30.45,North,5,2.0,2.0,43,0.00,,OVC110,0.00,VWS V14.01,2014-01-28 13:34:00,
2014-01-28 07:40:00,12.1,-5.6,30.45,North,357,0.0,0.0,44,0.00,,OVC110,0.00,VWS V14.01,2014-01-28 13:40:00,
2014-01-28 07:45:00,12.0,-5.2,30.45,North,357,1.0,1.0,45,0.00,,OVC110,0.00,VWS V14.01,2014-01-28 13:45:00,
2014-01-28 07:50:00,12.0,-5.2,30.46,North,5,0.0,0.0,45,0.00,,OVC110,0.00,VWS V14.01,2014-01-28 13:50:00,
2014-01-28 07:55:00,12.1,-5.6,30.45,North,5,1.0,1.0,44,0.00,,OVC110,0.00,VWS V14.01,2014-01-28 13:55:00,
2014-01-28 08:00:00,12.0,-5.7,30.45,North,357,0.0,0.0,44,0.00,,OVC110,0.00,VWS V14.01,2014-01-28 14:00:00,
2014-01-28 08:05:00,12.2,-5.1,30.46,North,357,2.0,2.0,45,0.00,,OVC110,0.00,VWS V14.01,2014-01-28 14:05:00,
2014-01-28 08:10:00,12.2,-5.1,30.46,North,357,1.0,1.0,45,0.00,,OVC100,0.00,VWS V14.01,2014-01-28 14:10:00,
2014-01-28 08:15:00,12.3,-5.0,30.45,North,357,2.0,2.0,45,0.00,,OVC100,0.00,VWS V14.01,2014-01-28 14:15:00,
2014-01-28 08:20:00,12.4,-4.9,30.46,North,357,0.0,0.0,45,0.00,,OVC100,0.00,VWS V14.01,2014-01-28 14:20:00,
2014-01-28 08:25:00,12.7,-4.2,30.46,North,6,0.0,0.0,46,0.00,,OVC100,0.00,VWS V14.01,2014-01-28 14:25:00,
2014-01-28 08:30:00,12.8,-4.5,30.46,North,5,0.0,0.0,45,0.00,,OVC100,0.00,VWS V14.01,2014-01-28 14:30:00,
2014-01-28 08:35:00,12.8,-4.5,30.46,North,357,0.0,0.0,45,0.00,,OVC100,0.00,VWS V14.01,2014-01-28 14:35:00,
2014-01-28 08:40:00,12.8,-4.5,30.47,North,5,0.0,0.0,45,0.00,,OVC100,0.00,VWS V14.01,2014-01-28 14:40:00,
2014-01-28 08:45:00,12.8,-4.1,30.47,North,5,3.0,3.0,46,0.00,,OVC100,0.00,VWS V14.01,2014-01-28 14:45:00,
2014-01-28 08:50:00,13.1,-4.2,30.47,North,11,1.0,1.0,45,0.00,,OVC100,0.00,VWS V14.01,2014-01-28 14:50:00,
2014-01-28 08:55:00,13.1,-4.2,30.47,NNE,13,0.0,0.0,45,0.00,,FEW080,0.00,VWS V14.01,2014-01-28 14:55:00,
2014-01-28 09:00:00,12.8,-4.5,30.47,North,10,0.0,0.0,45,0.00,,FEW080,0.00,VWS V14.01,2014-01-28 15:00:00,
2014-01-28 09:05:00,12.8,-4.5,30.47,North,11,0.0,0.0,45,0.00,,FEW080,0.00,VWS V14.01,2014-01-28 15:05:00,
2014-01-28 09:10:00,12.8,-4.1,30.47,NNE,14,0.0,0.0,46,0.00,,FEW080,0.00,VWS V14.01,2014-01-28 15:10:00,
2014-01-28 09:15:00,13.1,-4.2,30.47,NNE,15,2.0,2.0,45,0.00,,FEW080,0.00,VWS V14.01,2014-01-28 15:15:00,
2014-01-28 09:20:00,13.6,-3.8,30.47,NNE,17,0.0,0.0,45,0.00,,FEW080,0.00,VWS V14.01,2014-01-28 15:20:00,
2014-01-28 09:25:00,13.6,-3.8,30.47,North,354,0.0,0.0,45,0.00,,FEW080,0.00,VWS V14.01,2014-01-28 15:25:00,
2014-01-28 09:31:00,14.0,-4.4,30.48,NNE,13,1.0,1.0,43,0.00,,FEW080,0.00,VWS V14.01,2014-01-28 15:31:00,
2014-01-28 09:36:00,14.2,-4.7,30.47,North,355,0.0,0.0,42,0.00,,FEW080,0.00,VWS V14.01,2014-01-28 15:36:00,
2014-01-28 09:41:00,14.3,-4.1,30.47,North,350,0.0,0.0,43,0.00,,FEW080,0.00,VWS V14.01,2014-01-28 15:41:00,
2014-01-28 09:46:00,14.7,-3.7,30.47,North,357,0.0,0.0,43,0.00,,FEW080,0.00,VWS V14.01,2014-01-28 15:46:00,
2014-01-28 09:51:00,14.9,-4.5,30.48,North,357,0.0,0.0,41,0.00,,FEW080,0.00,VWS V14.01,2014-01-28 15:51:00,
2014-01-28 09:56:00,14.9,-5.1,30.48,North,352,0.0,0.0,40,0.00,,FEW150,0.00,VWS V14.01,2014-01-28 15:56:00,
2014-01-28 10:01:00,15.0,-5.0,30.48,NNW,342,1.0,1.0,40,0.00,,FEW150,0.00,VWS V14.01,2014-01-28 16:01:00,
2014-01-28 10:06:00,15.2,-4.8,30.48,NNW,344,0.0,0.0,40,0.00,,FEW150,0.00,VWS V14.01,2014-01-28 16:06:00,
2014-01-28 10:11:00,15.8,-4.2,30.48,NNE,18,2.0,2.0,40,0.00,,FEW150,0.00,VWS V14.01,2014-01-28 16:11:00,
2014-01-28 10:16:00,16.0,-5.1,30.48,NNE,18,0.0,0.0,38,0.00,,FEW150,0.00,VWS V14.01,2014-01-28 16:16:00,
2014-01-28 10:21:00,16.1,-6.1,30.48,NW,324,2.0,2.0,36,0.00,,FEW150,0.00,VWS V14.01,2014-01-28 16:21:00,
2014-01-28 10:26:00,16.2,-6.6,30.48,North,356,0.0,0.0,35,0.00,,FEW150,0.00,VWS V14.01,2014-01-28 16:26:00,
2014-01-28 10:32:00,16.4,-5.9,30.48,North,352,1.0,1.0,36,0.00,,FEW150,0.00,VWS V14.01,2014-01-28 16:32:00,
2014-01-28 10:37:00,16.6,-6.9,30.48,North,359,3.0,3.0,34,0.00,,FEW150,0.00,VWS V14.01,2014-01-28 16:37:00,
2014-01-28 10:42:00,16.5,-7.0,30.47,North,357,0.0,0.0,34,0.00,,FEW150,0.00,VWS V14.01,2014-01-28 16:42:00,
2014-01-28 10:47:00,16.7,-6.2,30.48,NNE,24,2.0,2.0,35,0.00,,FEW150,0.00,VWS V14.01,2014-01-28 16:47:00,
2014-01-28 10:52:00,17.2,-6.9,30.47,North,354,0.0,0.0,33,0.00,,FEW150,0.00,VWS V14.01,2014-01-28 16:52:00,
2014-01-28 10:57:00,17.5,-6.7,30.47,North,357,0.0,0.0,33,0.00,,FEW150,0.00,VWS V14.01,2014-01-28 16:57:00,
2014-01-28 11:02:00,17.7,-7.8,30.47,NNW,340,0.0,0.0,31,0.00,,FEW150,0.00,VWS V14.01,2014-01-28 17:02:00,
2014-01-28 11:07:00,17.8,-7.7,30.47,WNW,301,0.0,0.0,31,0.00,,FEW150,0.00,VWS V14.01,2014-01-28 17:07:00,
2014-01-28 11:12:00,18.2,-8.0,30.47,North,349,0.0,0.0,30,0.00,,FEW150,0.00,VWS V14.01,2014-01-28 17:12:00,
2014-01-28 11:17:00,18.6,-7.7,30.47,NW,324,3.0,3.0,30,0.00,,FEW150,0.00,VWS V14.01,2014-01-28 17:17:00,
2014-01-28 11:22:00,18.8,-7.5,30.47,North,357,3.0,3.0,30,0.00,,FEW150,0.00,VWS V14.01,2014-01-28 17:22:00,
2014-01-28 11:28:00,18.9,-8.1,30.46,NNE,16,4.0,4.0,29,0.00,,FEW150,0.00,VWS V14.01,2014-01-28 17:28:00,
2014-01-28 11:33:00,19.3,-7.1,30.46,NW,306,0.0,0.0,30,0.00,,FEW150,0.00,VWS V14.01,2014-01-28 17:33:00,
2014-01-28 11:38:00,20.1,-7.8,30.46,NNE,25,2.0,2.0,28,0.00,,FEW150,0.00,VWS V14.01,2014-01-28 17:38:00,
2014-01-28 11:43:00,19.9,-8.7,30.46,North,350,0.0,0.0,27,0.00,,FEW150,0.00,VWS V14.01,2014-01-28 17:43:00,
2014-01-28 11:48:00,20.2,-8.4,30.45,NNW,332,0.0,0.0,27,0.00,,FEW150,0.00,VWS V14.01,2014-01-28 17:48:00,
2014-01-28 11:53:00,20.5,-8.2,30.46,NNW,339,2.0,2.0,27,0.00,,FEW150,0.00,VWS V14.01,2014-01-28 17:53:00,
2014-01-28 11:58:00,20.5,-9.7,30.45,West,265,2.0,2.0,25,0.00,,SKC,0.00,VWS V14.01,2014-01-28 17:58:00,
2014-01-28 12:03:00,20.5,-9.7,30.44,West,277,0.0,0.0,25,0.00,,SKC,0.00,VWS V14.01,2014-01-28 18:03:00,
2014-01-28 12:08:00,21.1,-9.2,30.44,West,266,0.0,0.0,25,0.00,,SKC,0.00,VWS V14.01,2014-01-28 18:08:00,
2014-01-28 12:13:00,21.3,-9.0,30.44,NNE,23,0.0,0.0,25,0.00,,SKC,0.00,VWS V14.01,2014-01-28 18:13:00,
2014-01-28 12:18:00,21.6,-8.8,30.44,North,355,0.0,0.0,25,0.00,,SKC,0.00,VWS V14.01,2014-01-28 18:18:00,
2014-01-28 12:23:00,21.5,-8.9,30.43,SW,222,1.0,1.0,25,0.00,,SKC,0.00,VWS V14.01,2014-01-28 18:23:00,
2014-01-28 12:29:00,21.9,-9.4,30.44,NW,320,3.0,3.0,24,0.00,,SKC,0.00,VWS V14.01,2014-01-28 18:29:00,
2014-01-28 12:34:00,22.2,-8.3,30.43,North,350,0.0,0.0,25,0.00,,SKC,0.00,VWS V14.01,2014-01-28 18:34:00,
2014-01-28 12:39:00,22.1,-9.2,30.43,SW,233,2.0,2.0,24,0.00,,SKC,0.00,VWS V14.01,2014-01-28 18:39:00,
2014-01-28 12:44:00,22.0,-9.3,30.43,North,354,0.0,0.0,24,0.00,,SKC,0.00,VWS V14.01,2014-01-28 18:44:00,
2014-01-28 12:49:00,22.0,-9.3,30.42,NNE,23,0.0,0.0,24,0.00,,SKC,0.00,VWS V14.01,2014-01-28 18:49:00,
2014-01-28 12:54:00,22.2,-8.3,30.42,NNW,341,0.0,0.0,25,0.00,,SKC,0.00,VWS V14.01,2014-01-28 18:54:00,
2014-01-28 12:59:00,22.3,-9.0,30.42,North,357,0.0,0.0,24,0.00,,SKC,0.00,VWS V14.01,2014-01-28 18:59:00,
2014-01-28 13:04:00,22.4,-8.1,30.41,North,6,0.0,0.0,25,0.00,,SKC,0.00,VWS V14.01,2014-01-28 19:04:00,
2014-01-28 13:09:00,22.9,-7.7,30.41,NNE,13,0.0,0.0,25,0.00,,SKC,0.00,VWS V14.01,2014-01-28 19:09:00,
2014-01-28 13:14:00,23.0,-7.6,30.41,West,263,0.0,0.0,25,0.00,,SKC,0.00,VWS V14.01,2014-01-28 19:14:00,
2014-01-28 13:19:00,23.6,-7.1,30.40,NW,326,0.0,0.0,25,0.00,,SKC,0.00,VWS V14.01,2014-01-28 19:19:00,
2014-01-28 13:24:00,23.9,-7.6,30.41,West,268,0.0,0.0,24,0.00,,SKC,0.00,VWS V14.01,2014-01-28 19:24:00,
2014-01-28 13:30:00,23.9,-6.8,30.40,WSW,247,2.0,2.0,25,0.00,,SKC,0.00,VWS V14.01,2014-01-28 19:30:00,
2014-01-28 13:35:00,24.3,-7.3,30.40,NNW,337,3.0,3.0,24,0.00,,SKC,0.00,VWS V14.01,2014-01-28 19:35:00,
2014-01-28 13:40:00,24.0,-7.5,30.39,WSW,253,8.0,8.0,24,0.00,,SKC,0.00,VWS V14.01,2014-01-28 19:40:00,
2014-01-28 13:45:00,24.5,-7.1,30.40,West,271,0.0,0.0,24,0.00,,SKC,0.00,VWS V14.01,2014-01-28 19:45:00,
2014-01-28 13:50:00,24.4,-7.2,30.39,NW,325,0.0,0.0,24,0.00,,SKC,0.00,VWS V14.01,2014-01-28 19:50:00,
2014-01-28 13:55:00,24.5,-7.1,30.38,WSW,251,0.0,0.0,24,0.00,,SKC,0.00,VWS V14.01,2014-01-28 19:55:00,
2014-01-28 14:00:00,25.2,-5.7,30.38,WSW,238,0.0,0.0,25,0.00,,SKC,0.00,VWS V14.01,2014-01-28 20:00:00,
2014-01-28 14:05:00,25.1,-6.6,30.37,North,357,0.0,0.0,24,0.00,,SKC,0.00,VWS V14.01,2014-01-28 20:05:00,
2014-01-28 14:10:00,24.6,-6.2,30.37,West,263,0.0,0.0,25,0.00,,SKC,0.00,VWS V14.01,2014-01-28 20:10:00,
2014-01-28 14:15:00,24.8,-6.0,30.37,NNW,344,0.0,0.0,25,0.00,,SKC,0.00,VWS V14.01,2014-01-28 20:15:00,
2014-01-28 14:20:00,24.9,-5.9,30.37,WNW,301,0.0,0.0,25,0.00,,SKC,0.00,VWS V14.01,2014-01-28 20:20:00,
2014-01-28 14:25:00,25.2,-6.5,30.37,West,272,0.0,0.0,24,0.00,,SKC,0.00,VWS V14.01,2014-01-28 20:25:00,
2014-01-28 14:30:00,25.2,-6.5,30.37,West,264,3.0,3.0,24,0.00,,SKC,0.00,VWS V14.01,2014-01-28 20:30:00,
2014-01-28 14:35:00,25.2,-6.5,30.37,West,268,0.0,0.0,24,0.00,,SKC,0.00,VWS V14.01,2014-01-28 20:35:00,
2014-01-28 14:40:00,25.5,-6.3,30.37,NW,306,3.0,3.0,24,0.00,,SKC,0.00,VWS V14.01,2014-01-28 20:40:00,
2014-01-28 14:45:00,25.6,-6.2,30.37,North,357,0.0,0.0,24,0.00,,SKC,0.00,VWS V14.01,2014-01-28 20:45:00,
2014-01-28 14:50:00,25.5,-6.3,30.37,WNW,299,0.0,0.0,24,0.00,,SKC,0.00,VWS V14.01,2014-01-28 20:50:00,
2014-01-28 14:55:00,26.1,-5.7,30.38,West,267,2.0,2.0,24,0.00,,SKC,0.00,VWS V14.01,2014-01-28 20:55:00,
2014-01-28 15:00:00,26.1,-5.7,30.38,WSW,254,2.0,2.0,24,0.00,,SKC,0.00,VWS V14.01,2014-01-28 21:00:00,
2014-01-28 15:05:00,25.8,-6.0,30.37,West,267,2.0,2.0,24,0.00,,SKC,0.00,VWS V14.01,2014-01-28 21:05:00,
2014-01-28 15:10:00,26.0,-5.8,30.37,WSW,244,0.0,0.0,24,0.00,,SKC,0.00,VWS V14.01,2014-01-28 21:10:00,
2014-01-28 15:15:00,25.9,-5.9,30.37,WSW,255,0.0,0.0,24,0.00,,SKC,0.00,VWS V14.01,2014-01-28 21:15:00,
2014-01-28 15:20:00,26.4,-5.5,30.37,West,267,0.0,0.0,24,0.00,,SKC,0.00,VWS V14.01,2014-01-28 21:20:00,
2014-01-28 15:25:00,26.2,-5.7,30.37,West,263,6.0,6.0,24,0.00,,SKC,0.00,VWS V14.01,2014-01-28 21:25:00,
2014-01-28 15:30:00,26.1,-5.7,30.37,WSW,254,1.0,1.0,24,0.00,,SKC,0.00,VWS V14.01,2014-01-28 21:30:00,
2014-01-28 15:35:00,26.1,-5.7,30.37,WSW,238,0.0,0.0,24,0.00,,SKC,0.00,VWS V14.01,2014-01-28 21:35:00,
2014-01-28 15:40:00,26.2,-5.7,30.36,SW,227,0.0,0.0,24,0.00,,SKC,0.00,VWS V14.01,2014-01-28 21:40:00,
2014-01-28 15:45:00,26.1,-5.7,30.37,SSW,212,0.0,0.0,24,0.00,,SKC,0.00,VWS V14.01,2014-01-28 21:45:00,
2014-01-28 15:50:00,26.4,-5.5,30.36,West,276,0.0,0.0,24,0.00,,SKC,0.00,VWS V14.01,2014-01-28 21:50:00,
2014-01-28 15:55:00,26.4,-5.5,30.37,SSW,206,1.0,1.0,24,0.00,,SKC,0.00,VWS V14.01,2014-01-28 21:55:00,
2014-01-28 16:00:00,26.5,-5.4,30.37,West,274,2.0,2.0,24,0.00,,SKC,0.00,VWS V14.01,2014-01-28 22:00:00,
2014-01-28 16:05:00,26.2,-5.7,30.37,West,271,2.0,2.0,24,0.00,,SKC,0.00,VWS V14.01,2014-01-28 22:05:00,
2014-01-28 16:10:00,26.5,-5.4,30.37,NNW,334,0.0,0.0,24,0.00,,SKC,0.00,VWS V14.01,2014-01-28 22:10:00,
2014-01-28 16:15:00,26.6,-5.3,30.37,West,264,1.0,1.0,24,0.00,,SKC,0.00,VWS V14.01,2014-01-28 22:15:00,
2014-01-28 16:20:00,26.5,-5.4,30.36,West,261,0.0,0.0,24,0.00,,SKC,0.00,VWS V14.01,2014-01-28 22:20:00,
2014-01-28 16:25:00,26.6,-5.3,30.36,NW,318,0.0,0.0,24,0.00,,SKC,0.00,VWS V14.01,2014-01-28 22:25:00,
2014-01-28 16:30:00,26.5,-5.4,30.36,West,276,2.0,2.0,24,0.00,,SKC,0.00,VWS V14.01,2014-01-28 22:30:00,
2014-01-28 16:35:00,26.4,-5.5,30.36,WSW,242,0.0,0.0,24,0.00,,SKC,0.00,VWS V14.01,2014-01-28 22:35:00,
2014-01-28 16:40:00,26.2,-5.7,30.36,SW,222,4.0,4.0,24,0.00,,SKC,0.00,VWS V14.01,2014-01-28 22:40:00,
2014-01-28 16:45:00,26.1,-4.9,30.35,West,273,3.0,3.0,25,0.00,,SKC,0.00,VWS V14.01,2014-01-28 22:45:00,
2014-01-28 16:50:00,26.1,-4.9,30.35,WSW,255,3.0,3.0,25,0.00,,SKC,0.00,VWS V14.01,2014-01-28 22:50:00,
2014-01-28 16:55:00,25.9,-5.1,30.36,West,259,1.0,1.0,25,0.00,,SKC,0.00,VWS V14.01,2014-01-28 22:55:00,
2014-01-28 17:00:00,25.8,-5.2,30.35,West,264,4.0,4.0,25,0.00,,SKC,0.00,VWS V14.01,2014-01-28 23:00:00,
2014-01-28 17:05:00,25.6,-4.5,30.35,West,260,4.0,4.0,26,0.00,,SKC,0.00,VWS V14.01,2014-01-28 23:05:00,
2014-01-28 17:10:00,25.6,-3.7,30.35,West,268,2.0,2.0,27,0.00,,SKC,0.00,VWS V14.01,2014-01-28 23:10:00,
2014-01-28 17:15:00,25.6,-3.7,30.36,West,263,2.0,2.0,27,0.00,,SKC,0.00,VWS V14.01,2014-01-28 23:15:00,
2014-01-28 17:20:00,25.4,-3.9,30.36,West,266,2.0,2.0,27,0.00,,SKC,0.00,VWS V14.01,2014-01-28 23:20:00,
2014-01-28 17:25:00,24.9,-3.6,30.36,West,264,5.0,5.0,28,0.00,,SKC,0.00,VWS V14.01,2014-01-28 23:25:00,
2014-01-28 17:30:00,24.6,-3.1,30.35,West,265,2.0,2.0,29,0.00,,SKC,0.00,VWS V14.01,2014-01-28 23:30:00,
2014-01-28 17:35:00,24.3,-3.4,30.35,West,261,2.0,2.0,29,0.00,,SKC,0.00,VWS V14.01,2014-01-28 23:35:00,
2014-01-28 17:40:00,24.2,-2.8,30.36,West,264,2.0,2.0,30,0.00,,SKC,0.00,VWS V14.01,2014-01-28 23:40:00,
2014-01-28 17:45:00,24.1,-2.8,30.35,West,263,3.0,3.0,30,0.00,,SKC,0.00,VWS V14.01,2014-01-28 23:45:00,
2014-01-28 17:50:00,23.9,-3.0,30.36,West,263,0.0,0.0,30,0.00,,SKC,0.00,VWS V14.01,2014-01-28 23:50:00,
2014-01-28 17:55:00,23.8,-3.1,30.35,West,272,2.0,2.0,30,0.00,,SKC,0.00,VWS V14.01,2014-01-28 23:55:00,
2014-01-28 18:00:00,23.7,-3.2,30.35,West,268,0.0,0.0,30,0.00,,SKC,0.00,VWS V14.01,2014-01-29 00:00:00,
2014-01-28 18:05:00,23.6,-3.3,30.36,West,266,1.0,1.0,30,0.00,,SKC,0.00,VWS V14.01,2014-01-29 00:05:00,
2014-01-28 18:10:00,23.4,-3.5,30.36,West,266,0.0,0.0,30,0.00,,SKC,0.00,VWS V14.01,2014-01-29 00:10:00,
2014-01-28 18:15:00,23.3,-3.5,30.35,West,266,0.0,0.0,30,0.00,,SKC,0.00,VWS V14.01,2014-01-29 00:15:00,
2014-01-28 18:20:00,23.2,-2.9,30.36,West,266,0.0,0.0,31,0.00,,SKC,0.00,VWS V14.01,2014-01-29 00:20:00,
2014-01-28 18:25:00,22.9,-3.2,30.36,West,266,0.0,0.0,31,0.00,,SKC,0.00,VWS V14.01,2014-01-29 00:25:00,
2014-01-28 18:29:00,22.7,-2.7,30.36,West,279,0.0,0.0,32,0.00,,SKC,0.00,VWS V14.01,2014-01-29 00:29:00,
2014-01-28 18:34:00,22.8,-2.6,30.36,WNW,283,0.0,0.0,32,0.00,,SKC,0.00,VWS V14.01,2014-01-29 00:34:00,
2014-01-28 18:39:00,22.6,-2.8,30.36,WNW,283,0.0,0.0,32,0.00,,SKC,0.00,VWS V14.01,2014-01-29 00:39:00,
2014-01-28 18:44:00,22.6,-2.2,30.37,West,267,0.0,0.0,33,0.00,,SKC,0.00,VWS V14.01,2014-01-29 00:44:00,
2014-01-28 18:49:00,22.5,-2.9,30.37,West,271,0.0,0.0,32,0.00,,SKC,0.00,VWS V14.01,2014-01-29 00:49:00,
2014-01-28 18:54:00,22.3,-2.4,30.37,WNW,283,0.0,0.0,33,0.00,,SKC,0.00,VWS V14.01,2014-01-29 00:54:00,
2014-01-28 18:59:00,22.2,-2.5,30.37,WNW,283,0.0,0.0,33,0.00,,SKC,0.00,VWS V14.01,2014-01-29 00:59:00,
2014-01-28 19:04:00,21.9,-2.8,30.37,WNW,284,0.0,0.0,33,0.00,,SKC,0.00,VWS V14.01,2014-01-29 01:04:00,
2014-01-28 19:10:00,21.8,-2.2,30.37,WNW,285,0.0,0.0,34,0.00,,SKC,0.00,VWS V14.01,2014-01-29 01:10:00,
2014-01-28 19:15:00,21.6,-1.8,30.38,WNW,300,3.0,3.0,35,0.00,,SKC,0.00,VWS V14.01,2014-01-29 01:15:00,
2014-01-28 19:20:00,21.6,-3.0,30.37,NW,323,0.0,0.0,33,0.00,,SKC,0.00,VWS V14.01,2014-01-29 01:20:00,
2014-01-28 19:25:00,21.5,-3.1,30.37,NNW,338,0.0,0.0,33,0.00,,SKC,0.00,VWS V14.01,2014-01-29 01:25:00,
2014-01-28 19:30:00,21.3,-3.3,30.37,NNW,339,0.0,0.0,33,0.00,,SKC,0.00,VWS V14.01,2014-01-29 01:30:00,
2014-01-28 19:35:00,21.0,-2.3,30.38,NNW,338,0.0,0.0,35,0.00,,SKC,0.00,VWS V14.01,2014-01-29 01:35:00,
2014-01-28 19:40:00,20.9,-2.4,30.38,NNW,330,0.0,0.0,35,0.00,,SKC,0.00,VWS V14.01,2014-01-29 01:40:00,
2014-01-28 19:45:00,20.7,-2.6,30.38,NW,322,0.0,0.0,35,0.00,,SKC,0.00,VWS V14.01,2014-01-29 01:45:00,
2014-01-28 19:50:00,20.6,-2.7,30.38,NW,321,0.0,0.0,35,0.00,,SKC,0.00,VWS V14.01,2014-01-29 01:50:00,
2014-01-28 19:55:00,20.4,-2.9,30.38,NW,321,0.0,0.0,35,0.00,,SKC,0.00,VWS V14.01,2014-01-29 01:55:00,
2014-01-28 20:00:00,20.3,-2.4,30.38,NW,321,0.0,0.0,36,0.00,,SKC,0.00,VWS V14.01,2014-01-29 02:00:00,
2014-01-28 20:05:00,20.1,-2.6,30.38,NW,321,0.0,0.0,36,0.00,,SKC,0.00,VWS V14.01,2014-01-29 02:05:00,
2014-01-28 20:10:00,19.8,-2.2,30.38,NW,321,0.0,0.0,37,0.00,,SKC,0.00,VWS V14.01,2014-01-29 02:10:00,
2014-01-28 20:15:00,19.3,-2.7,30.38,NW,321,0.0,0.0,37,0.00,,SKC,0.00,VWS V14.01,2014-01-29 02:15:00,
2014-01-28 20:20:00,18.8,-2.0,30.38,NW,321,0.0,0.0,39,0.00,,SKC,0.00,VWS V14.01,2014-01-29 02:20:00,
2014-01-28 20:25:00,18.5,-2.3,30.38,NW,321,0.0,0.0,39,0.00,,SKC,0.00,VWS V14.01,2014-01-29 02:25:00,
2014-01-28 20:30:00,18.5,-2.3,30.38,NW,321,0.0,0.0,39,0.00,,SKC,0.00,VWS V14.01,2014-01-29 02:30:00,
2014-01-28 20:35:00,18.5,-2.9,30.38,NW,321,0.0,0.0,38,0.00,,SKC,0.00,VWS V14.01,2014-01-29 02:35:00,
2014-01-28 20:40:00,18.3,-2.5,30.38,NW,321,0.0,0.0,39,0.00,,SKC,0.00,VWS V14.01,2014-01-29 02:40:00,
2014-01-28 20:45:00,18.2,-2.1,30.38,NW,321,0.0,0.0,40,0.00,,SKC,0.00,VWS V14.01,2014-01-29 02:45:00,
2014-01-28 20:50:00,17.9,-1.3,30.38,NW,321,0.0,0.0,42,0.00,,SKC,0.00,VWS V14.01,2014-01-29 02:50:00,
2014-01-28 20:55:00,17.7,-1.5,30.38,NW,321,0.0,0.0,42,0.00,,SKC,0.00,VWS V14.01,2014-01-29 02:55:00,
2014-01-28 21:00:00,17.4,-1.8,30.39,NW,321,0.0,0.0,42,0.00,,SKC,0.00,VWS V14.01,2014-01-29 03:00:00,
2014-01-28 21:05:00,17.2,-1.4,30.39,NW,321,0.0,0.0,43,0.00,,SKC,0.00,VWS V14.01,2014-01-29 03:05:00,
2014-01-28 21:10:00,17.3,-1.4,30.39,NW,321,0.0,0.0,43,0.00,,SKC,0.00,VWS V14.01,2014-01-29 03:10:00,
2014-01-28 21:15:00,17.1,-1.5,30.39,NW,321,0.0,0.0,43,0.00,,SKC,0.00,VWS V14.01,2014-01-29 03:15:00,
2014-01-28 21:20:00,16.8,-1.3,30.39,NW,321,0.0,0.0,44,0.00,,SKC,0.00,VWS V14.01,2014-01-29 03:20:00,
2014-01-28 21:25:00,16.5,-1.6,30.38,NW,321,0.0,0.0,44,0.00,,SKC,0.00,VWS V14.01,2014-01-29 03:25:00,
2014-01-28 21:30:00,16.3,-1.3,30.38,NW,321,0.0,0.0,45,0.00,,SKC,0.00,VWS V14.01,2014-01-29 03:30:00,
2014-01-28 21:35:00,16.1,-1.5,30.38,NW,321,0.0,0.0,45,0.00,,SKC,0.00,VWS V14.01,2014-01-29 03:35:00,
2014-01-28 21:40:00,16.0,-1.1,30.38,NW,321,0.0,0.0,46,0.00,,SKC,0.00,VWS V14.01,2014-01-29 03:40:00,
2014-01-28 21:45:00,15.8,-0.9,30.38,NW,321,0.0,0.0,47,0.00,,SKC,0.00,VWS V14.01,2014-01-29 03:45:00,
2014-01-28 21:50:00,15.7,-0.5,30.39,NW,321,0.0,0.0,48,0.00,,SKC,0.00,VWS V14.01,2014-01-29 03:50:00,
2014-01-28 21:55:00,15.5,-0.7,30.39,NW,321,0.0,0.0,48,0.00,,SKC,0.00,VWS V14.01,2014-01-29 03:55:00,
2014-01-28 22:00:00,15.2,-0.5,30.38,NW,321,0.0,0.0,49,0.00,,SKC,0.00,VWS V14.01,2014-01-29 04:00:00,
2014-01-28 22:05:00,15.2,-0.1,30.38,NW,321,0.0,0.0,50,0.00,,SKC,0.00,VWS V14.01,2014-01-29 04:05:00,
2014-01-28 22:10:00,15.1,-0.2,30.38,NW,321,0.0,0.0,50,0.00,,SKC,0.00,VWS V14.01,2014-01-29 04:10:00,
2014-01-28 22:15:00,14.9,-0.4,30.38,NW,321,0.0,0.0,50,0.00,,SKC,0.00,VWS V14.01,2014-01-29 04:15:00,
2014-01-28 22:20:00,14.8,0.0,30.38,NW,321,0.0,0.0,51,0.00,,,0.00,VWS V14.01,2014-01-29 04:20:00,
2014-01-28 22:23:00,14.8,0.0,30.38,NW,321,0.0,0.0,51,0.00,,,0.00,VWS V14.01,2014-01-29 04:23:00,
2014-01-28 22:28:00,14.6,0.2,30.38,NW,321,0.0,0.0,52,0.00,,,0.00,VWS V14.01,2014-01-29 04:28:00,
2014-01-28 22:34:00,14.6,0.2,30.51,NW,321,0.0,0.0,52,0.00,,,0.00,VWS V14.01,2014-01-29 04:34:00,
2014-01-28 22:39:00,14.4,0.0,30.51,NW,321,0.0,0.0,52,0.00,,,0.00,VWS V14.01,2014-01-29 04:39:00,
2014-01-28 22:44:00,14.3,0.3,30.51,NW,321,0.0,0.0,53,0.00,,SKC,0.00,VWS V14.01,2014-01-29 04:44:00,
2014-01-28 22:49:00,14.2,0.2,30.51,NW,322,0.0,0.0,53,0.00,,,0.00,VWS V14.01,2014-01-29 04:49:00,
2014-01-28 22:54:00,14.1,0.5,30.38,NW,321,0.0,0.0,54,0.00,,SKC,0.00,VWS V14.01,2014-01-29 04:54:00,
2014-01-28 22:59:00,14.0,0.4,30.38,NW,321,0.0,0.0,54,0.00,,SKC,0.00,VWS V14.01,2014-01-29 04:59:00,
2014-01-28 23:01:00,14.0,0.4,30.38,NW,321,0.0,0.0,54,0.00,,SKC,0.00,VWS V14.01,2014-01-29 05:01:00,
2014-01-28 23:02:00,13.8,0.6,30.50,NW,321,0.0,0.0,55,0.00,,SKC,0.00,VWS V14.01,2014-01-29 05:02:00,
2014-01-28 23:03:00,13.8,0.6,30.50,NW,322,0.0,0.0,55,0.00,,SKC,0.00,VWS V14.01,2014-01-29 05:03:00,
2014-01-28 23:04:00,13.8,1.0,30.50,NW,321,0.0,0.0,56,0.00,,SKC,0.00,VWS V14.01,2014-01-29 05:04:00,
2014-01-28 23:15:00,13.6,0.8,30.50,NW,321,0.0,0.0,56,0.00,,,0.00,VWS V14.01,2014-01-29 05:15:00,
2014-01-28 23:20:00,13.3,0.9,30.50,NW,321,0.0,0.0,57,0.00,,SKC,0.00,VWS V14.01,2014-01-29 05:20:00,
2014-01-28 23:25:00,13.2,0.8,30.49,NW,321,0.0,0.0,57,0.00,,SKC,0.00,VWS V14.01,2014-01-29 05:25:00,
2014-01-28 23:30:00,13.1,1.1,30.50,NW,321,0.0,0.0,58,0.00,,SKC,0.00,VWS V14.01,2014-01-29 05:30:00,
2014-01-28 23:35:00,13.1,0.7,30.49,NW,322,0.0,0.0,57,0.00,,SKC,0.00,VWS V14.01,2014-01-29 05:35:00,
2014-01-28 23:40:00,13.1,0.7,30.50,NW,321,0.0,0.0,57,0.00,,SKC,0.00,VWS V14.01,2014-01-29 05:40:00,
2014-01-28 23:45:00,13.0,0.6,30.50,NW,321,0.0,0.0,57,0.00,,SKC,0.00,VWS V14.01,2014-01-29 05:45:00,
2014-01-28 23:50:00,13.0,1.0,30.49,NW,321,0.0,0.0,58,0.00,,SKC,0.00,VWS V14.01,2014-01-29 05:50:00,
2014-01-28 23:55:00,12.8,1.2,30.49,NW,321,0.0,0.0,59,0.00,,SKC,0.00,VWS V14.01,2014-01-29 05:55:00,